sensor_id;sensor_type;location;lat;lon;timestamp;P1;durP1;ratioP1;P2;durP2;ratioP2
19024;SDS011;9645;51.448;6.260;2022-09-09T00:00:54;0.80;;;0.80;;
19024;SDS011;9645;51.448;6.260;2022-09-09T00:03:24;1.03;;;0.80;;
19024;SDS011;9645;51.448;6.260;2022-09-09T00:05:55;0.93;;;0.93;;
19024;SDS011;9645;51.448;6.260;2022-09-09T00:08:28;1.67;;;0.80;;
19024;SDS011;9645;51.448;6.260;2022-09-09T00:11:01;0.90;;;0.90;;
19024;SDS011;9645;51.448;6.260;2022-09-09T00:13:32;1.70;;;0.90;;
19024;SDS011;9645;51.448;6.260;2022-09-09T00:16:02;1.73;;;0.73;;
19024;SDS011;9645;51.448;6.260;2022-09-09T00:18:31;1.03;;;1.03;;
19024;SDS011;9645;51.448;6.260;2022-09-09T00:21:05;1.13;;;1.03;;
19024;SDS011;9645;51.448;6.260;2022-09-09T00:23:33;1.03;;;0.73;;
19024;SDS011;9645;51.448;6.260;2022-09-09T00:26:04;0.90;;;0.90;;
19024;SDS011;9645;51.448;6.260;2022-09-09T00:28:36;7.70;;;0.90;;
19024;SDS011;9645;51.448;6.260;2022-09-09T00:31:09;3.63;;;0.87;;
19024;SDS011;9645;51.448;6.260;2022-09-09T00:33:38;1.00;;;1.00;;
19024;SDS011;9645;51.448;6.260;2022-09-09T00:36:09;1.47;;;1.00;;
19024;SDS011;9645;51.448;6.260;2022-09-09T00:38:42;1.20;;;1.10;;
19024;SDS011;9645;51.448;6.260;2022-09-09T00:41:13;3.33;;;1.07;;
19024;SDS011;9645;51.448;6.260;2022-09-09T00:43:46;1.93;;;1.20;;
19024;SDS011;9645;51.448;6.260;2022-09-09T00:46:21;1.53;;;1.43;;
19024;SDS011;9645;51.448;6.260;2022-09-09T00:49:03;1.67;;;1.57;;
19024;SDS011;9645;51.448;6.260;2022-09-09T00:51:44;4.20;;;1.80;;
19024;SDS011;9645;51.448;6.260;2022-09-09T00:54:19;3.53;;;2.07;;
19024;SDS011;9645;51.448;6.260;2022-09-09T00:56:53;9.50;;;1.97;;
19024;SDS011;9645;51.448;6.260;2022-09-09T00:59:28;2.30;;;2.20;;
19024;SDS011;9645;51.448;6.260;2022-09-09T01:02:01;1.80;;;1.50;;
19024;SDS011;9645;51.448;6.260;2022-09-09T01:04:29;3.00;;;2.70;;
19024;SDS011;9645;51.448;6.260;2022-09-09T01:07:02;2.90;;;2.63;;
19024;SDS011;9645;51.448;6.260;2022-09-09T01:09:37;2.70;;;1.93;;
19024;SDS011;9645;51.448;6.260;2022-09-09T01:12:09;3.10;;;1.60;;
19024;SDS011;9645;51.448;6.260;2022-09-09T01:14:42;3.30;;;1.90;;
19024;SDS011;9645;51.448;6.260;2022-09-09T01:17:14;4.03;;;1.70;;
19024;SDS011;9645;51.448;6.260;2022-09-09T01:19:49;3.10;;;1.40;;
19024;SDS011;9645;51.448;6.260;2022-09-09T01:22:26;4.73;;;1.37;;
19024;SDS011;9645;51.448;6.260;2022-09-09T01:25:13;5.23;;;1.60;;
19024;SDS011;9645;51.448;6.260;2022-09-09T01:27:54;2.33;;;1.57;;
19024;SDS011;9645;51.448;6.260;2022-09-09T01:30:24;3.50;;;1.00;;
19024;SDS011;9645;51.448;6.260;2022-09-09T01:32:53;3.50;;;1.70;;
19024;SDS011;9645;51.448;6.260;2022-09-09T01:35:27;2.10;;;1.30;;
19024;SDS011;9645;51.448;6.260;2022-09-09T01:38:03;2.20;;;1.40;;
19024;SDS011;9645;51.448;6.260;2022-09-09T01:40:30;3.70;;;1.40;;
19024;SDS011;9645;51.448;6.260;2022-09-09T01:43:00;3.47;;;1.30;;
19024;SDS011;9645;51.448;6.260;2022-09-09T01:45:27;1.93;;;1.00;;
19024;SDS011;9645;51.448;6.260;2022-09-09T01:47:54;3.63;;;1.53;;
19024;SDS011;9645;51.448;6.260;2022-09-09T01:50:21;2.50;;;1.70;;
19024;SDS011;9645;51.448;6.260;2022-09-09T01:52:50;5.80;;;1.10;;
19024;SDS011;9645;51.448;6.260;2022-09-09T01:55:21;2.47;;;1.53;;
19024;SDS011;9645;51.448;6.260;2022-09-09T01:57:55;5.20;;;1.23;;
19024;SDS011;9645;51.448;6.260;2022-09-09T02:00:33;3.60;;;1.63;;
19024;SDS011;9645;51.448;6.260;2022-09-09T02:03:05;1.87;;;1.20;;
19024;SDS011;9645;51.448;6.260;2022-09-09T02:05:41;2.03;;;1.03;;
19024;SDS011;9645;51.448;6.260;2022-09-09T02:08:13;2.73;;;1.13;;
19024;SDS011;9645;51.448;6.260;2022-09-09T02:10:46;2.00;;;1.50;;
19024;SDS011;9645;51.448;6.260;2022-09-09T02:13:20;1.50;;;1.30;;
19024;SDS011;9645;51.448;6.260;2022-09-09T02:15:50;5.03;;;1.33;;
19024;SDS011;9645;51.448;6.260;2022-09-09T02:18:22;4.27;;;1.37;;
19024;SDS011;9645;51.448;6.260;2022-09-09T02:20:52;2.97;;;1.53;;
19024;SDS011;9645;51.448;6.260;2022-09-09T02:23:20;6.60;;;1.90;;
19024;SDS011;9645;51.448;6.260;2022-09-09T02:25:47;1.50;;;1.10;;
19024;SDS011;9645;51.448;6.260;2022-09-09T02:28:16;2.93;;;1.27;;
19024;SDS011;9645;51.448;6.260;2022-09-09T02:30:49;2.20;;;1.20;;
19024;SDS011;9645;51.448;6.260;2022-09-09T02:33:20;6.60;;;1.60;;
19024;SDS011;9645;51.448;6.260;2022-09-09T02:35:51;3.47;;;1.90;;
19024;SDS011;9645;51.448;6.260;2022-09-09T02:38:21;2.50;;;1.47;;
19024;SDS011;9645;51.448;6.260;2022-09-09T02:40:52;1.87;;;1.50;;
19024;SDS011;9645;51.448;6.260;2022-09-09T02:43:21;6.83;;;1.77;;
19024;SDS011;9645;51.448;6.260;2022-09-09T02:45:50;3.10;;;1.87;;
19024;SDS011;9645;51.448;6.260;2022-09-09T02:48:34;3.47;;;1.70;;
19024;SDS011;9645;51.448;6.260;2022-09-09T02:51:10;4.10;;;1.70;;
19024;SDS011;9645;51.448;6.260;2022-09-09T02:53:46;10.50;;;1.77;;
19024;SDS011;9645;51.448;6.260;2022-09-09T02:56:17;2.47;;;1.53;;
19024;SDS011;9645;51.448;6.260;2022-09-09T02:58:49;11.10;;;2.13;;
19024;SDS011;9645;51.448;6.260;2022-09-09T03:01:17;5.87;;;1.60;;
19024;SDS011;9645;51.448;6.260;2022-09-09T03:03:44;3.07;;;2.00;;
19024;SDS011;9645;51.448;6.260;2022-09-09T03:06:11;5.33;;;1.93;;
19024;SDS011;9645;51.448;6.260;2022-09-09T03:08:39;7.57;;;2.23;;
19024;SDS011;9645;51.448;6.260;2022-09-09T03:11:07;6.53;;;2.07;;
19024;SDS011;9645;51.448;6.260;2022-09-09T03:13:35;3.92;;;1.90;;
19024;SDS011;9645;51.448;6.260;2022-09-09T03:16:04;4.27;;;1.73;;
19024;SDS011;9645;51.448;6.260;2022-09-09T03:18:31;2.10;;;1.70;;
19024;SDS011;9645;51.448;6.260;2022-09-09T03:20:59;8.17;;;2.00;;
19024;SDS011;9645;51.448;6.260;2022-09-09T03:23:26;7.47;;;1.50;;
19024;SDS011;9645;51.448;6.260;2022-09-09T03:25:54;4.27;;;1.53;;
19024;SDS011;9645;51.448;6.260;2022-09-09T03:28:22;3.03;;;1.70;;
19024;SDS011;9645;51.448;6.260;2022-09-09T03:30:57;1.87;;;1.70;;
19024;SDS011;9645;51.448;6.260;2022-09-09T03:33:26;2.10;;;1.43;;
19024;SDS011;9645;51.448;6.260;2022-09-09T03:35:54;4.57;;;1.70;;
19024;SDS011;9645;51.448;6.260;2022-09-09T03:38:22;3.93;;;1.87;;
19024;SDS011;9645;51.448;6.260;2022-09-09T03:40:50;5.60;;;2.03;;
19024;SDS011;9645;51.448;6.260;2022-09-09T03:43:20;4.77;;;1.33;;
19024;SDS011;9645;51.448;6.260;2022-09-09T03:45:47;4.33;;;1.77;;
19024;SDS011;9645;51.448;6.260;2022-09-09T03:48:14;6.73;;;1.97;;
19024;SDS011;9645;51.448;6.260;2022-09-09T03:50:45;4.73;;;1.97;;
19024;SDS011;9645;51.448;6.260;2022-09-09T03:53:13;4.27;;;1.63;;
19024;SDS011;9645;51.448;6.260;2022-09-09T03:55:43;4.27;;;2.07;;
19024;SDS011;9645;51.448;6.260;2022-09-09T03:58:10;6.23;;;1.53;;
19024;SDS011;9645;51.448;6.260;2022-09-09T04:00:38;4.10;;;1.70;;
19024;SDS011;9645;51.448;6.260;2022-09-09T04:03:07;4.07;;;1.97;;
19024;SDS011;9645;51.448;6.260;2022-09-09T04:05:34;5.40;;;1.90;;
19024;SDS011;9645;51.448;6.260;2022-09-09T04:08:06;7.00;;;2.27;;
19024;SDS011;9645;51.448;6.260;2022-09-09T04:10:33;4.63;;;2.13;;
19024;SDS011;9645;51.448;6.260;2022-09-09T04:13:01;4.40;;;2.20;;
19024;SDS011;9645;51.448;6.260;2022-09-09T04:15:28;5.77;;;2.10;;
19024;SDS011;9645;51.448;6.260;2022-09-09T04:17:55;11.00;;;2.40;;
19024;SDS011;9645;51.448;6.260;2022-09-09T04:20:24;6.53;;;2.30;;
19024;SDS011;9645;51.448;6.260;2022-09-09T04:22:51;4.37;;;2.30;;
19024;SDS011;9645;51.448;6.260;2022-09-09T04:25:20;13.37;;;2.70;;
19024;SDS011;9645;51.448;6.260;2022-09-09T04:27:47;5.77;;;1.90;;
19024;SDS011;9645;51.448;6.260;2022-09-09T04:30:17;5.93;;;2.20;;
19024;SDS011;9645;51.448;6.260;2022-09-09T04:32:43;3.17;;;2.57;;
19024;SDS011;9645;51.448;6.260;2022-09-09T04:35:10;4.10;;;2.13;;
19024;SDS011;9645;51.448;6.260;2022-09-09T04:37:37;4.80;;;2.10;;
19024;SDS011;9645;51.448;6.260;2022-09-09T04:40:05;8.83;;;2.57;;
19024;SDS011;9645;51.448;6.260;2022-09-09T04:42:36;6.30;;;2.73;;
19024;SDS011;9645;51.448;6.260;2022-09-09T04:45:04;8.90;;;2.50;;
19024;SDS011;9645;51.448;6.260;2022-09-09T04:47:31;6.67;;;2.70;;
19024;SDS011;9645;51.448;6.260;2022-09-09T04:49:59;9.50;;;2.47;;
19024;SDS011;9645;51.448;6.260;2022-09-09T04:52:26;6.10;;;2.37;;
19024;SDS011;9645;51.448;6.260;2022-09-09T04:54:53;7.77;;;2.53;;
19024;SDS011;9645;51.448;6.260;2022-09-09T04:57:21;2.40;;;2.13;;
19024;SDS011;9645;51.448;6.260;2022-09-09T04:59:49;10.07;;;2.30;;
19024;SDS011;9645;51.448;6.260;2022-09-09T05:02:16;5.23;;;2.60;;
19024;SDS011;9645;51.448;6.260;2022-09-09T05:04:44;3.10;;;2.30;;
19024;SDS011;9645;51.448;6.260;2022-09-09T05:07:11;6.43;;;2.10;;
19024;SDS011;9645;51.448;6.260;2022-09-09T05:09:38;7.73;;;2.83;;
19024;SDS011;9645;51.448;6.260;2022-09-09T05:12:05;11.90;;;2.33;;
19024;SDS011;9645;51.448;6.260;2022-09-09T05:14:33;12.13;;;2.90;;
19024;SDS011;9645;51.448;6.260;2022-09-09T05:17:02;5.63;;;2.20;;
19024;SDS011;9645;51.448;6.260;2022-09-09T05:19:29;5.20;;;2.60;;
19024;SDS011;9645;51.448;6.260;2022-09-09T05:21:56;13.47;;;2.43;;
19024;SDS011;9645;51.448;6.260;2022-09-09T05:24:23;4.60;;;2.30;;
19024;SDS011;9645;51.448;6.260;2022-09-09T05:26:50;8.90;;;2.60;;
19024;SDS011;9645;51.448;6.260;2022-09-09T05:29:17;6.57;;;2.40;;
19024;SDS011;9645;51.448;6.260;2022-09-09T05:31:45;11.37;;;2.93;;
19024;SDS011;9645;51.448;6.260;2022-09-09T05:34:13;7.73;;;2.20;;
19024;SDS011;9645;51.448;6.260;2022-09-09T05:36:40;13.00;;;1.97;;
19024;SDS011;9645;51.448;6.260;2022-09-09T05:39:07;6.70;;;2.07;;
19024;SDS011;9645;51.448;6.260;2022-09-09T05:41:34;12.40;;;2.07;;
19024;SDS011;9645;51.448;6.260;2022-09-09T05:44:01;4.43;;;1.93;;
19024;SDS011;9645;51.448;6.260;2022-09-09T05:46:28;9.80;;;2.70;;
19024;SDS011;9645;51.448;6.260;2022-09-09T05:48:56;3.67;;;2.10;;
19024;SDS011;9645;51.448;6.260;2022-09-09T05:51:25;6.80;;;2.13;;
19024;SDS011;9645;51.448;6.260;2022-09-09T05:53:55;4.33;;;2.07;;
19024;SDS011;9645;51.448;6.260;2022-09-09T05:56:24;6.57;;;2.40;;
19024;SDS011;9645;51.448;6.260;2022-09-09T05:58:52;7.47;;;2.50;;
19024;SDS011;9645;51.448;6.260;2022-09-09T06:01:20;5.37;;;2.23;;
19024;SDS011;9645;51.448;6.260;2022-09-09T06:03:48;15.23;;;1.73;;
19024;SDS011;9645;51.448;6.260;2022-09-09T06:06:17;11.83;;;2.30;;
19024;SDS011;9645;51.448;6.260;2022-09-09T06:08:49;5.83;;;2.10;;
19024;SDS011;9645;51.448;6.260;2022-09-09T06:11:18;2.83;;;1.60;;
19024;SDS011;9645;51.448;6.260;2022-09-09T06:13:47;9.60;;;2.10;;
19024;SDS011;9645;51.448;6.260;2022-09-09T06:16:17;7.07;;;2.23;;
19024;SDS011;9645;51.448;6.260;2022-09-09T06:18:44;4.53;;;2.27;;
19024;SDS011;9645;51.448;6.260;2022-09-09T06:21:14;12.20;;;2.33;;
19024;SDS011;9645;51.448;6.260;2022-09-09T06:23:43;6.00;;;1.83;;
19024;SDS011;9645;51.448;6.260;2022-09-09T06:26:13;16.27;;;2.67;;
19024;SDS011;9645;51.448;6.260;2022-09-09T06:28:42;13.50;;;2.37;;
19024;SDS011;9645;51.448;6.260;2022-09-09T06:31:11;6.17;;;2.07;;
19024;SDS011;9645;51.448;6.260;2022-09-09T06:33:39;4.43;;;1.70;;
19024;SDS011;9645;51.448;6.260;2022-09-09T06:36:10;7.47;;;2.73;;
19024;SDS011;9645;51.448;6.260;2022-09-09T06:38:38;4.67;;;1.97;;
19024;SDS011;9645;51.448;6.260;2022-09-09T06:41:06;4.93;;;2.30;;
19024;SDS011;9645;51.448;6.260;2022-09-09T06:43:35;7.33;;;2.63;;
19024;SDS011;9645;51.448;6.260;2022-09-09T06:46:03;7.80;;;2.33;;
19024;SDS011;9645;51.448;6.260;2022-09-09T06:48:33;8.60;;;2.10;;
19024;SDS011;9645;51.448;6.260;2022-09-09T06:51:00;7.00;;;2.03;;
19024;SDS011;9645;51.448;6.260;2022-09-09T06:53:28;12.10;;;1.77;;
19024;SDS011;9645;51.448;6.260;2022-09-09T06:55:55;5.40;;;2.13;;
19024;SDS011;9645;51.448;6.260;2022-09-09T06:58:22;12.30;;;2.07;;
19024;SDS011;9645;51.448;6.260;2022-09-09T07:00:50;6.10;;;1.90;;
19024;SDS011;9645;51.448;6.260;2022-09-09T07:03:17;3.50;;;2.10;;
19024;SDS011;9645;51.448;6.260;2022-09-09T07:05:53;11.53;;;2.30;;
19024;SDS011;9645;51.448;6.260;2022-09-09T07:08:21;8.23;;;2.00;;
19024;SDS011;9645;51.448;6.260;2022-09-09T07:10:48;6.60;;;1.60;;
19024;SDS011;9645;51.448;6.260;2022-09-09T07:13:16;4.53;;;1.90;;
19024;SDS011;9645;51.448;6.260;2022-09-09T07:15:46;8.20;;;2.20;;
19024;SDS011;9645;51.448;6.260;2022-09-09T07:18:15;11.87;;;2.50;;
19024;SDS011;9645;51.448;6.260;2022-09-09T07:20:42;9.57;;;2.00;;
19024;SDS011;9645;51.448;6.260;2022-09-09T07:23:08;7.27;;;1.87;;
19024;SDS011;9645;51.448;6.260;2022-09-09T07:25:36;3.83;;;1.60;;
19024;SDS011;9645;51.448;6.260;2022-09-09T07:28:03;6.00;;;1.60;;
19024;SDS011;9645;51.448;6.260;2022-09-09T07:30:32;4.93;;;1.40;;
19024;SDS011;9645;51.448;6.260;2022-09-09T07:33:00;6.60;;;1.73;;
19024;SDS011;9645;51.448;6.260;2022-09-09T07:35:29;2.70;;;1.40;;
19024;SDS011;9645;51.448;6.260;2022-09-09T07:37:57;5.50;;;1.63;;
19024;SDS011;9645;51.448;6.260;2022-09-09T07:40:24;6.00;;;2.33;;
19024;SDS011;9645;51.448;6.260;2022-09-09T07:42:51;5.33;;;1.40;;
19024;SDS011;9645;51.448;6.260;2022-09-09T07:45:18;5.10;;;1.33;;
19024;SDS011;9645;51.448;6.260;2022-09-09T07:47:45;5.43;;;1.50;;
19024;SDS011;9645;51.448;6.260;2022-09-09T07:50:14;7.93;;;1.73;;
19024;SDS011;9645;51.448;6.260;2022-09-09T07:52:42;2.63;;;1.20;;
19024;SDS011;9645;51.448;6.260;2022-09-09T07:55:09;3.17;;;1.20;;
19024;SDS011;9645;51.448;6.260;2022-09-09T07:57:36;3.60;;;1.20;;
19024;SDS011;9645;51.448;6.260;2022-09-09T08:00:03;6.50;;;1.83;;
19024;SDS011;9645;51.448;6.260;2022-09-09T08:02:31;10.03;;;1.83;;
19024;SDS011;9645;51.448;6.260;2022-09-09T08:04:58;6.43;;;1.40;;
19024;SDS011;9645;51.448;6.260;2022-09-09T08:07:25;10.23;;;1.67;;
19024;SDS011;9645;51.448;6.260;2022-09-09T08:09:54;6.83;;;1.37;;
19024;SDS011;9645;51.448;6.260;2022-09-09T08:12:22;10.57;;;1.97;;
19024;SDS011;9645;51.448;6.260;2022-09-09T08:14:49;7.07;;;1.97;;
19024;SDS011;9645;51.448;6.260;2022-09-09T08:17:16;4.90;;;1.60;;
19024;SDS011;9645;51.448;6.260;2022-09-09T08:19:44;4.87;;;1.30;;
19024;SDS011;9645;51.448;6.260;2022-09-09T08:22:11;7.80;;;1.93;;
19024;SDS011;9645;51.448;6.260;2022-09-09T08:24:38;3.80;;;1.50;;
19024;SDS011;9645;51.448;6.260;2022-09-09T08:27:07;5.20;;;1.50;;
19024;SDS011;9645;51.448;6.260;2022-09-09T08:29:35;3.87;;;1.30;;
19024;SDS011;9645;51.448;6.260;2022-09-09T08:32:03;5.67;;;1.80;;
19024;SDS011;9645;51.448;6.260;2022-09-09T08:34:30;7.13;;;1.70;;
19024;SDS011;9645;51.448;6.260;2022-09-09T08:36:57;6.97;;;1.80;;
19024;SDS011;9645;51.448;6.260;2022-09-09T08:39:24;7.10;;;1.50;;
19024;SDS011;9645;51.448;6.260;2022-09-09T08:42:00;7.27;;;2.20;;
19024;SDS011;9645;51.448;6.260;2022-09-09T08:44:48;7.30;;;1.50;;
19024;SDS011;9645;51.448;6.260;2022-09-09T08:47:27;12.50;;;1.60;;
19024;SDS011;9645;51.448;6.260;2022-09-09T08:50:05;8.93;;;1.80;;
19024;SDS011;9645;51.448;6.260;2022-09-09T08:52:44;6.43;;;2.03;;
19024;SDS011;9645;51.448;6.260;2022-09-09T08:55:20;10.00;;;2.17;;
19024;SDS011;9645;51.448;6.260;2022-09-09T08:57:54;5.23;;;1.30;;
19024;SDS011;9645;51.448;6.260;2022-09-09T09:00:27;7.83;;;2.30;;
19024;SDS011;9645;51.448;6.260;2022-09-09T09:03:00;6.77;;;1.83;;
19024;SDS011;9645;51.448;6.260;2022-09-09T09:05:36;3.50;;;1.60;;
19024;SDS011;9645;51.448;6.260;2022-09-09T09:08:09;4.93;;;1.73;;
19024;SDS011;9645;51.448;6.260;2022-09-09T09:10:45;14.73;;;2.50;;
19024;SDS011;9645;51.448;6.260;2022-09-09T09:13:19;4.33;;;1.47;;
19024;SDS011;9645;51.448;6.260;2022-09-09T09:15:52;3.27;;;1.53;;
19024;SDS011;9645;51.448;6.260;2022-09-09T09:18:24;3.73;;;1.23;;
19024;SDS011;9645;51.448;6.260;2022-09-09T09:20:55;2.93;;;1.20;;
19024;SDS011;9645;51.448;6.260;2022-09-09T09:23:31;4.63;;;1.30;;
19024;SDS011;9645;51.448;6.260;2022-09-09T09:26:06;9.00;;;1.57;;
19024;SDS011;9645;51.448;6.260;2022-09-09T09:28:37;6.20;;;1.47;;
19024;SDS011;9645;51.448;6.260;2022-09-09T09:31:06;5.93;;;1.60;;
19024;SDS011;9645;51.448;6.260;2022-09-09T09:33:34;6.53;;;1.40;;
19024;SDS011;9645;51.448;6.260;2022-09-09T09:36:11;6.00;;;1.80;;
19024;SDS011;9645;51.448;6.260;2022-09-09T09:38:50;5.87;;;1.73;;
19024;SDS011;9645;51.448;6.260;2022-09-09T09:41:28;4.00;;;1.40;;
19024;SDS011;9645;51.448;6.260;2022-09-09T09:43:57;9.10;;;1.50;;
19024;SDS011;9645;51.448;6.260;2022-09-09T09:46:26;6.50;;;1.60;;
19024;SDS011;9645;51.448;6.260;2022-09-09T09:48:57;3.60;;;1.23;;
19024;SDS011;9645;51.448;6.260;2022-09-09T09:51:25;8.90;;;1.60;;
19024;SDS011;9645;51.448;6.260;2022-09-09T09:53:54;1.90;;;1.23;;
19024;SDS011;9645;51.448;6.260;2022-09-09T09:56:35;3.47;;;1.20;;
19024;SDS011;9645;51.448;6.260;2022-09-09T09:59:04;6.87;;;1.70;;
19024;SDS011;9645;51.448;6.260;2022-09-09T10:01:38;5.70;;;1.63;;
19024;SDS011;9645;51.448;6.260;2022-09-09T10:04:13;7.10;;;1.73;;
19024;SDS011;9645;51.448;6.260;2022-09-09T10:06:43;8.37;;;1.60;;
19024;SDS011;9645;51.448;6.260;2022-09-09T10:09:20;7.27;;;1.70;;
19024;SDS011;9645;51.448;6.260;2022-09-09T10:11:51;11.07;;;1.87;;
19024;SDS011;9645;51.448;6.260;2022-09-09T10:14:27;8.33;;;1.97;;
19024;SDS011;9645;51.448;6.260;2022-09-09T10:17:04;5.90;;;1.97;;
19024;SDS011;9645;51.448;6.260;2022-09-09T10:19:37;5.57;;;1.63;;
19024;SDS011;9645;51.448;6.260;2022-09-09T10:22:14;4.30;;;1.40;;
19024;SDS011;9645;51.448;6.260;2022-09-09T10:25:04;5.77;;;1.63;;
19024;SDS011;9645;51.448;6.260;2022-09-09T10:27:49;8.90;;;1.80;;
19024;SDS011;9645;51.448;6.260;2022-09-09T10:30:29;4.90;;;1.80;;
19024;SDS011;9645;51.448;6.260;2022-09-09T10:33:02;6.43;;;1.90;;
19024;SDS011;9645;51.448;6.260;2022-09-09T10:35:35;7.23;;;1.70;;
19024;SDS011;9645;51.448;6.260;2022-09-09T10:38:13;9.87;;;1.63;;
19024;SDS011;9645;51.448;6.260;2022-09-09T10:40:50;19.93;;;1.47;;
19024;SDS011;9645;51.448;6.260;2022-09-09T10:43:41;3.20;;;1.73;;
19024;SDS011;9645;51.448;6.260;2022-09-09T10:46:33;15.10;;;1.80;;
19024;SDS011;9645;51.448;6.260;2022-09-09T10:49:14;5.90;;;1.60;;
19024;SDS011;9645;51.448;6.260;2022-09-09T10:51:51;4.83;;;1.73;;
19024;SDS011;9645;51.448;6.260;2022-09-09T10:54:29;4.47;;;1.53;;
19024;SDS011;9645;51.448;6.260;2022-09-09T10:57:08;5.83;;;1.97;;
19024;SDS011;9645;51.448;6.260;2022-09-09T10:59:40;1.50;;;1.00;;
19024;SDS011;9645;51.448;6.260;2022-09-09T11:02:13;3.30;;;1.57;;
19024;SDS011;9645;51.448;6.260;2022-09-09T11:04:45;3.73;;;1.20;;
19024;SDS011;9645;51.448;6.260;2022-09-09T11:07:24;6.93;;;1.70;;
19024;SDS011;9645;51.448;6.260;2022-09-09T11:09:55;6.20;;;1.70;;
19024;SDS011;9645;51.448;6.260;2022-09-09T11:12:27;3.53;;;1.50;;
19024;SDS011;9645;51.448;6.260;2022-09-09T11:14:58;7.00;;;2.37;;
19024;SDS011;9645;51.448;6.260;2022-09-09T11:17:33;8.23;;;1.87;;
19024;SDS011;9645;51.448;6.260;2022-09-09T11:20:06;12.20;;;1.50;;
19024;SDS011;9645;51.448;6.260;2022-09-09T11:22:37;5.17;;;1.80;;
19024;SDS011;9645;51.448;6.260;2022-09-09T11:25:10;6.43;;;1.97;;
19024;SDS011;9645;51.448;6.260;2022-09-09T11:27:43;4.27;;;1.23;;
19024;SDS011;9645;51.448;6.260;2022-09-09T11:30:23;6.10;;;1.80;;
19024;SDS011;9645;51.448;6.260;2022-09-09T11:33:04;4.60;;;1.83;;
19024;SDS011;9645;51.448;6.260;2022-09-09T11:35:58;5.20;;;1.90;;
19024;SDS011;9645;51.448;6.260;2022-09-09T11:38:36;4.43;;;1.83;;
19024;SDS011;9645;51.448;6.260;2022-09-09T11:41:11;5.67;;;1.83;;
19024;SDS011;9645;51.448;6.260;2022-09-09T11:43:40;4.90;;;1.67;;
19024;SDS011;9645;51.448;6.260;2022-09-09T11:46:09;5.83;;;1.90;;
19024;SDS011;9645;51.448;6.260;2022-09-09T11:48:38;4.43;;;1.80;;
19024;SDS011;9645;51.448;6.260;2022-09-09T11:51:09;8.33;;;2.10;;
19024;SDS011;9645;51.448;6.260;2022-09-09T11:53:47;6.30;;;1.67;;
19024;SDS011;9645;51.448;6.260;2022-09-09T11:56:23;10.93;;;1.93;;
19024;SDS011;9645;51.448;6.260;2022-09-09T11:58:57;3.80;;;1.50;;
19024;SDS011;9645;51.448;6.260;2022-09-09T12:01:28;4.63;;;1.90;;
19024;SDS011;9645;51.448;6.260;2022-09-09T12:04:05;7.90;;;2.23;;
19024;SDS011;9645;51.448;6.260;2022-09-09T12:06:41;4.03;;;2.00;;
19024;SDS011;9645;51.448;6.260;2022-09-09T12:09:14;7.83;;;2.00;;
19024;SDS011;9645;51.448;6.260;2022-09-09T12:11:44;7.37;;;2.47;;
19024;SDS011;9645;51.448;6.260;2022-09-09T12:14:18;6.10;;;2.40;;
19024;SDS011;9645;51.448;6.260;2022-09-09T12:16:46;6.67;;;2.20;;
19024;SDS011;9645;51.448;6.260;2022-09-09T12:19:15;7.37;;;2.17;;
19024;SDS011;9645;51.448;6.260;2022-09-09T12:21:45;7.10;;;2.20;;
19024;SDS011;9645;51.448;6.260;2022-09-09T12:24:14;7.70;;;2.27;;
19024;SDS011;9645;51.448;6.260;2022-09-09T12:26:47;5.13;;;2.00;;
19024;SDS011;9645;51.448;6.260;2022-09-09T12:29:21;7.40;;;2.40;;
19024;SDS011;9645;51.448;6.260;2022-09-09T12:31:53;4.40;;;2.03;;
19024;SDS011;9645;51.448;6.260;2022-09-09T12:34:28;4.77;;;2.27;;
19024;SDS011;9645;51.448;6.260;2022-09-09T12:36:59;6.17;;;1.93;;
19024;SDS011;9645;51.448;6.260;2022-09-09T12:39:29;8.70;;;2.30;;
19024;SDS011;9645;51.448;6.260;2022-09-09T12:41:58;2.10;;;1.90;;
19024;SDS011;9645;51.448;6.260;2022-09-09T12:44:26;2.93;;;1.50;;
19024;SDS011;9645;51.448;6.260;2022-09-09T12:46:54;4.63;;;2.03;;
19024;SDS011;9645;51.448;6.260;2022-09-09T12:49:26;2.00;;;1.83;;
19024;SDS011;9645;51.448;6.260;2022-09-09T12:51:53;4.00;;;2.07;;
19024;SDS011;9645;51.448;6.260;2022-09-09T12:54:22;5.50;;;2.20;;
19024;SDS011;9645;51.448;6.260;2022-09-09T12:56:49;10.63;;;2.37;;
19024;SDS011;9645;51.448;6.260;2022-09-09T12:59:21;6.63;;;2.23;;
19024;SDS011;9645;51.448;6.260;2022-09-09T13:01:55;5.30;;;2.00;;
19024;SDS011;9645;51.448;6.260;2022-09-09T13:04:22;7.00;;;2.43;;
19024;SDS011;9645;51.448;6.260;2022-09-09T13:06:51;7.30;;;1.90;;
19024;SDS011;9645;51.448;6.260;2022-09-09T13:09:18;3.63;;;1.80;;
19024;SDS011;9645;51.448;6.260;2022-09-09T13:11:46;2.50;;;1.83;;
19024;SDS011;9645;51.448;6.260;2022-09-09T13:14:17;10.43;;;2.07;;
19024;SDS011;9645;51.448;6.260;2022-09-09T13:16:54;3.87;;;2.17;;
19024;SDS011;9645;51.448;6.260;2022-09-09T13:19:22;3.60;;;2.10;;
19024;SDS011;9645;51.448;6.260;2022-09-09T13:21:54;5.10;;;1.90;;
19024;SDS011;9645;51.448;6.260;2022-09-09T13:24:31;6.17;;;1.90;;
19024;SDS011;9645;51.448;6.260;2022-09-09T13:27:00;4.70;;;1.70;;
19024;SDS011;9645;51.448;6.260;2022-09-09T13:29:28;6.03;;;2.03;;
19024;SDS011;9645;51.448;6.260;2022-09-09T13:32:03;3.77;;;1.93;;
19024;SDS011;9645;51.448;6.260;2022-09-09T13:34:32;7.27;;;2.17;;
19024;SDS011;9645;51.448;6.260;2022-09-09T13:37:02;4.23;;;2.23;;
19024;SDS011;9645;51.448;6.260;2022-09-09T13:39:30;3.07;;;1.70;;
19024;SDS011;9645;51.448;6.260;2022-09-09T13:41:59;5.40;;;1.70;;
19024;SDS011;9645;51.448;6.260;2022-09-09T13:44:28;5.77;;;2.03;;
19024;SDS011;9645;51.448;6.260;2022-09-09T13:47:03;3.77;;;1.90;;
19024;SDS011;9645;51.448;6.260;2022-09-09T13:49:31;5.53;;;2.20;;
19024;SDS011;9645;51.448;6.260;2022-09-09T13:52:09;6.27;;;2.07;;
19024;SDS011;9645;51.448;6.260;2022-09-09T13:54:37;5.47;;;2.70;;
19024;SDS011;9645;51.448;6.260;2022-09-09T13:57:04;3.60;;;1.83;;
19024;SDS011;9645;51.448;6.260;2022-09-09T13:59:32;1.47;;;1.30;;
19024;SDS011;9645;51.448;6.260;2022-09-09T14:01:59;2.10;;;1.23;;
19024;SDS011;9645;51.448;6.260;2022-09-09T14:04:26;2.10;;;1.20;;
19024;SDS011;9645;51.448;6.260;2022-09-09T14:06:54;2.40;;;1.10;;
19024;SDS011;9645;51.448;6.260;2022-09-09T14:09:23;5.50;;;1.40;;
19024;SDS011;9645;51.448;6.260;2022-09-09T14:11:50;4.50;;;1.30;;
19024;SDS011;9645;51.448;6.260;2022-09-09T14:14:17;4.30;;;1.83;;
19024;SDS011;9645;51.448;6.260;2022-09-09T14:16:45;1.80;;;1.30;;
19024;SDS011;9645;51.448;6.260;2022-09-09T14:19:12;3.17;;;1.40;;
19024;SDS011;9645;51.448;6.260;2022-09-09T14:21:39;3.20;;;1.43;;
19024;SDS011;9645;51.448;6.260;2022-09-09T14:24:07;6.37;;;1.73;;
19024;SDS011;9645;51.448;6.260;2022-09-09T14:26:35;2.43;;;1.40;;
19024;SDS011;9645;51.448;6.260;2022-09-09T14:29:04;3.63;;;2.00;;
19024;SDS011;9645;51.448;6.260;2022-09-09T14:31:32;6.93;;;1.80;;
19024;SDS011;9645;51.448;6.260;2022-09-09T14:34:01;2.60;;;1.60;;
19024;SDS011;9645;51.448;6.260;2022-09-09T14:36:28;3.67;;;1.77;;
19024;SDS011;9645;51.448;6.260;2022-09-09T14:38:56;4.20;;;1.60;;
19024;SDS011;9645;51.448;6.260;2022-09-09T14:41:23;6.20;;;1.43;;
19024;SDS011;9645;51.448;6.260;2022-09-09T14:43:52;4.23;;;1.70;;
19024;SDS011;9645;51.448;6.260;2022-09-09T14:46:19;6.37;;;1.80;;
19024;SDS011;9645;51.448;6.260;2022-09-09T14:48:47;5.63;;;1.50;;
19024;SDS011;9645;51.448;6.260;2022-09-09T14:51:15;4.33;;;1.80;;
19024;SDS011;9645;51.448;6.260;2022-09-09T14:53:44;6.27;;;1.90;;
19024;SDS011;9645;51.448;6.260;2022-09-09T14:56:13;9.03;;;1.43;;
19024;SDS011;9645;51.448;6.260;2022-09-09T14:58:40;3.80;;;1.73;;
19024;SDS011;9645;51.448;6.260;2022-09-09T15:01:10;3.43;;;1.63;;
19024;SDS011;9645;51.448;6.260;2022-09-09T15:03:38;4.60;;;1.50;;
19024;SDS011;9645;51.448;6.260;2022-09-09T15:06:06;6.23;;;2.00;;
19024;SDS011;9645;51.448;6.260;2022-09-09T15:08:34;5.90;;;1.50;;
19024;SDS011;9645;51.448;6.260;2022-09-09T15:11:02;4.27;;;1.70;;
19024;SDS011;9645;51.448;6.260;2022-09-09T15:13:29;4.30;;;1.47;;
19024;SDS011;9645;51.448;6.260;2022-09-09T15:16:03;4.10;;;1.40;;
19024;SDS011;9645;51.448;6.260;2022-09-09T15:18:32;3.43;;;1.43;;
19024;SDS011;9645;51.448;6.260;2022-09-09T15:21:01;2.57;;;1.70;;